sensor_id;sensor_type;location;lat;lon;timestamp;P1;durP1;ratioP1;P2;durP2;ratioP2
61085;SDS011;46967;48.876;2.136;2024-03-22T00:01:43;10.10;;;6.57;;
61085;SDS011;46967;48.876;2.136;2024-03-22T00:04:09;10.63;;;6.32;;
61085;SDS011;46967;48.876;2.136;2024-03-22T00:06:34;11.77;;;5.72;;
61085;SDS011;46967;48.876;2.136;2024-03-22T00:09:00;11.38;;;5.63;;
61085;SDS011;46967;48.876;2.136;2024-03-22T00:11:25;9.57;;;4.95;;
61085;SDS011;46967;48.876;2.136;2024-03-22T00:13:50;9.07;;;5.68;;
61085;SDS011;46967;48.876;2.136;2024-03-22T00:16:16;9.40;;;5.70;;
61085;SDS011;46967;48.876;2.136;2024-03-22T00:18:41;9.20;;;5.65;;
61085;SDS011;46967;48.876;2.136;2024-03-22T00:21:06;11.00;;;5.38;;
61085;SDS011;46967;48.876;2.136;2024-03-22T00:23:32;10.30;;;5.85;;
61085;SDS011;46967;48.876;2.136;2024-03-22T00:25:57;10.45;;;5.55;;
61085;SDS011;46967;48.876;2.136;2024-03-22T00:28:22;11.63;;;5.68;;
61085;SDS011;46967;48.876;2.136;2024-03-22T00:30:48;9.65;;;5.53;;
61085;SDS011;46967;48.876;2.136;2024-03-22T00:33:13;12.68;;;5.28;;
61085;SDS011;46967;48.876;2.136;2024-03-22T00:35:38;12.20;;;5.40;;
61085;SDS011;46967;48.876;2.136;2024-03-22T00:38:04;9.45;;;5.25;;
61085;SDS011;46967;48.876;2.136;2024-03-22T00:40:29;7.60;;;4.90;;
61085;SDS011;46967;48.876;2.136;2024-03-22T00:42:54;12.23;;;5.28;;
61085;SDS011;46967;48.876;2.136;2024-03-22T00:45:20;8.25;;;4.93;;
61085;SDS011;46967;48.876;2.136;2024-03-22T00:47:45;8.30;;;5.07;;
61085;SDS011;46967;48.876;2.136;2024-03-22T00:50:10;12.40;;;5.57;;
61085;SDS011;46967;48.876;2.136;2024-03-22T00:52:37;10.02;;;5.78;;
61085;SDS011;46967;48.876;2.136;2024-03-22T00:55:03;10.25;;;5.47;;
61085;SDS011;46967;48.876;2.136;2024-03-22T00:57:28;13.70;;;5.63;;
61085;SDS011;46967;48.876;2.136;2024-03-22T00:59:53;9.00;;;5.63;;
61085;SDS011;46967;48.876;2.136;2024-03-22T01:02:19;8.32;;;5.25;;
61085;SDS011;46967;48.876;2.136;2024-03-22T01:04:44;10.85;;;4.90;;
61085;SDS011;46967;48.876;2.136;2024-03-22T01:07:09;11.13;;;5.35;;
61085;SDS011;46967;48.876;2.136;2024-03-22T01:09:35;8.07;;;5.30;;
61085;SDS011;46967;48.876;2.136;2024-03-22T01:12:00;7.85;;;4.65;;
61085;SDS011;46967;48.876;2.136;2024-03-22T01:14:25;10.80;;;5.50;;
61085;SDS011;46967;48.876;2.136;2024-03-22T01:16:51;11.95;;;5.15;;
61085;SDS011;46967;48.876;2.136;2024-03-22T01:19:16;8.25;;;5.60;;
61085;SDS011;46967;48.876;2.136;2024-03-22T01:21:42;12.38;;;6.15;;
61085;SDS011;46967;48.876;2.136;2024-03-22T01:24:07;10.45;;;5.80;;
61085;SDS011;46967;48.876;2.136;2024-03-22T01:26:32;11.02;;;6.72;;
61085;SDS011;46967;48.876;2.136;2024-03-22T01:28:57;16.38;;;5.90;;
61085;SDS011;46967;48.876;2.136;2024-03-22T01:31:23;9.25;;;6.03;;
61085;SDS011;46967;48.876;2.136;2024-03-22T01:33:48;9.77;;;5.75;;
61085;SDS011;46967;48.876;2.136;2024-03-22T01:36:13;8.30;;;5.47;;
61085;SDS011;46967;48.876;2.136;2024-03-22T01:38:39;10.52;;;6.20;;
61085;SDS011;46967;48.876;2.136;2024-03-22T01:41:04;11.88;;;6.50;;
61085;SDS011;46967;48.876;2.136;2024-03-22T01:43:29;14.05;;;6.35;;
61085;SDS011;46967;48.876;2.136;2024-03-22T01:45:55;8.82;;;6.07;;
61085;SDS011;46967;48.876;2.136;2024-03-22T01:48:20;9.95;;;6.30;;
61085;SDS011;46967;48.876;2.136;2024-03-22T01:50:46;9.73;;;5.93;;
61085;SDS011;46967;48.876;2.136;2024-03-22T01:53:11;12.63;;;6.78;;
61085;SDS011;46967;48.876;2.136;2024-03-22T01:55:37;9.80;;;5.47;;
61085;SDS011;46967;48.876;2.136;2024-03-22T01:58:02;9.43;;;5.55;;
61085;SDS011;46967;48.876;2.136;2024-03-22T02:00:29;8.30;;;5.38;;
61085;SDS011;46967;48.876;2.136;2024-03-22T02:02:55;9.15;;;5.38;;
61085;SDS011;46967;48.876;2.136;2024-03-22T02:05:21;9.85;;;5.30;;
61085;SDS011;46967;48.876;2.136;2024-03-22T02:07:46;9.48;;;5.55;;
61085;SDS011;46967;48.876;2.136;2024-03-22T02:10:13;9.95;;;4.72;;
61085;SDS011;46967;48.876;2.136;2024-03-22T02:12:38;9.10;;;5.15;;
61085;SDS011;46967;48.876;2.136;2024-03-22T02:15:04;13.50;;;5.63;;
61085;SDS011;46967;48.876;2.136;2024-03-22T02:17:29;10.32;;;5.63;;
61085;SDS011;46967;48.876;2.136;2024-03-22T02:19:55;9.98;;;5.55;;
61085;SDS011;46967;48.876;2.136;2024-03-22T02:22:20;9.30;;;5.63;;
61085;SDS011;46967;48.876;2.136;2024-03-22T02:24:45;8.25;;;5.43;;
61085;SDS011;46967;48.876;2.136;2024-03-22T02:27:11;11.18;;;6.05;;
61085;SDS011;46967;48.876;2.136;2024-03-22T02:29:36;10.13;;;5.47;;
61085;SDS011;46967;48.876;2.136;2024-03-22T02:32:01;9.98;;;5.38;;
61085;SDS011;46967;48.876;2.136;2024-03-22T02:34:28;8.65;;;5.20;;
61085;SDS011;46967;48.876;2.136;2024-03-22T02:36:53;11.82;;;5.65;;
61085;SDS011;46967;48.876;2.136;2024-03-22T02:39:19;9.15;;;6.05;;
61085;SDS011;46967;48.876;2.136;2024-03-22T02:41:44;10.93;;;5.72;;
61085;SDS011;46967;48.876;2.136;2024-03-22T02:44:09;9.55;;;5.85;;
61085;SDS011;46967;48.876;2.136;2024-03-22T02:46:35;10.73;;;5.78;;
61085;SDS011;46967;48.876;2.136;2024-03-22T02:49:00;10.88;;;6.07;;
61085;SDS011;46967;48.876;2.136;2024-03-22T02:51:25;9.30;;;6.45;;
61085;SDS011;46967;48.876;2.136;2024-03-22T02:53:51;10.52;;;6.30;;
61085;SDS011;46967;48.876;2.136;2024-03-22T02:56:16;13.60;;;5.95;;
61085;SDS011;46967;48.876;2.136;2024-03-22T02:58:41;9.50;;;5.63;;
61085;SDS011;46967;48.876;2.136;2024-03-22T03:01:07;12.38;;;6.03;;
61085;SDS011;46967;48.876;2.136;2024-03-22T03:03:32;8.65;;;5.80;;
61085;SDS011;46967;48.876;2.136;2024-03-22T03:05:57;9.25;;;5.78;;
61085;SDS011;46967;48.876;2.136;2024-03-22T03:08:23;8.35;;;5.63;;
61085;SDS011;46967;48.876;2.136;2024-03-22T03:10:48;10.82;;;6.03;;
61085;SDS011;46967;48.876;2.136;2024-03-22T03:13:13;8.52;;;5.50;;
61085;SDS011;46967;48.876;2.136;2024-03-22T03:15:39;9.18;;;5.72;;
61085;SDS011;46967;48.876;2.136;2024-03-22T03:18:04;9.65;;;5.60;;
61085;SDS011;46967;48.876;2.136;2024-03-22T03:20:29;8.65;;;5.78;;
61085;SDS011;46967;48.876;2.136;2024-03-22T03:22:55;6.80;;;5.22;;
61085;SDS011;46967;48.876;2.136;2024-03-22T03:25:22;11.55;;;5.80;;
61085;SDS011;46967;48.876;2.136;2024-03-22T03:27:48;8.95;;;5.40;;
61085;SDS011;46967;48.876;2.136;2024-03-22T03:30:13;9.00;;;5.70;;
61085;SDS011;46967;48.876;2.136;2024-03-22T03:32:38;9.18;;;5.70;;
61085;SDS011;46967;48.876;2.136;2024-03-22T03:35:04;7.93;;;5.00;;
61085;SDS011;46967;48.876;2.136;2024-03-22T03:37:30;8.30;;;5.40;;
61085;SDS011;46967;48.876;2.136;2024-03-22T03:39:55;8.40;;;5.25;;
61085;SDS011;46967;48.876;2.136;2024-03-22T03:42:21;9.65;;;5.63;;
61085;SDS011;46967;48.876;2.136;2024-03-22T03:44:46;9.50;;;5.25;;
61085;SDS011;46967;48.876;2.136;2024-03-22T03:47:11;9.82;;;6.10;;
61085;SDS011;46967;48.876;2.136;2024-03-22T03:49:36;10.80;;;6.68;;
61085;SDS011;46967;48.876;2.136;2024-03-22T03:52:02;8.00;;;6.00;;
61085;SDS011;46967;48.876;2.136;2024-03-22T03:54:27;8.82;;;6.22;;
61085;SDS011;46967;48.876;2.136;2024-03-22T03:56:53;9.55;;;5.85;;
61085;SDS011;46967;48.876;2.136;2024-03-22T03:59:18;10.85;;;6.00;;
61085;SDS011;46967;48.876;2.136;2024-03-22T04:01:44;10.52;;;6.35;;
61085;SDS011;46967;48.876;2.136;2024-03-22T04:04:09;10.75;;;6.95;;
61085;SDS011;46967;48.876;2.136;2024-03-22T04:06:34;13.23;;;6.90;;
61085;SDS011;46967;48.876;2.136;2024-03-22T04:09:00;7.75;;;5.63;;
61085;SDS011;46967;48.876;2.136;2024-03-22T04:11:25;13.25;;;6.22;;
61085;SDS011;46967;48.876;2.136;2024-03-22T04:13:51;11.18;;;6.22;;
61085;SDS011;46967;48.876;2.136;2024-03-22T04:16:16;9.13;;;6.18;;
61085;SDS011;46967;48.876;2.136;2024-03-22T04:18:41;9.70;;;6.82;;
61085;SDS011;46967;48.876;2.136;2024-03-22T04:21:07;9.60;;;6.18;;
61085;SDS011;46967;48.876;2.136;2024-03-22T04:23:32;11.82;;;6.75;;
61085;SDS011;46967;48.876;2.136;2024-03-22T04:25:58;10.27;;;6.40;;
61085;SDS011;46967;48.876;2.136;2024-03-22T04:28:25;9.00;;;6.18;;
61085;SDS011;46967;48.876;2.136;2024-03-22T04:31:04;10.52;;;6.68;;
61085;SDS011;46967;48.876;2.136;2024-03-22T04:35:56;15.23;;;6.13;;
61085;SDS011;46967;48.876;2.136;2024-03-22T04:38:23;9.65;;;5.80;;
61085;SDS011;46967;48.876;2.136;2024-03-22T04:40:49;9.82;;;6.60;;
61085;SDS011;46967;48.876;2.136;2024-03-22T04:43:14;9.63;;;6.13;;
61085;SDS011;46967;48.876;2.136;2024-03-22T04:45:44;11.80;;;6.22;;
61085;SDS011;46967;48.876;2.136;2024-03-22T04:48:12;12.18;;;6.28;;
61085;SDS011;46967;48.876;2.136;2024-03-22T04:50:39;8.13;;;6.00;;
61085;SDS011;46967;48.876;2.136;2024-03-22T04:53:04;9.68;;;5.75;;
61085;SDS011;46967;48.876;2.136;2024-03-22T04:55:30;13.60;;;5.97;;
61085;SDS011;46967;48.876;2.136;2024-03-22T04:57:56;12.60;;;6.43;;
61085;SDS011;46967;48.876;2.136;2024-03-22T05:00:21;11.55;;;6.07;;
61085;SDS011;46967;48.876;2.136;2024-03-22T05:02:46;11.80;;;6.78;;
61085;SDS011;46967;48.876;2.136;2024-03-22T05:05:12;11.48;;;6.63;;
61085;SDS011;46967;48.876;2.136;2024-03-22T05:07:38;9.98;;;6.65;;
61085;SDS011;46967;48.876;2.136;2024-03-22T05:10:04;10.50;;;7.22;;
61085;SDS011;46967;48.876;2.136;2024-03-22T05:12:30;9.05;;;6.78;;
61085;SDS011;46967;48.876;2.136;2024-03-22T05:14:55;10.75;;;6.53;;
61085;SDS011;46967;48.876;2.136;2024-03-22T05:17:21;13.60;;;6.65;;
61085;SDS011;46967;48.876;2.136;2024-03-22T05:19:46;9.93;;;7.10;;
61085;SDS011;46967;48.876;2.136;2024-03-22T05:22:12;11.20;;;6.95;;
61085;SDS011;46967;48.876;2.136;2024-03-22T05:24:37;9.52;;;6.63;;
61085;SDS011;46967;48.876;2.136;2024-03-22T05:27:02;13.98;;;8.38;;
61085;SDS011;46967;48.876;2.136;2024-03-22T05:29:28;11.25;;;7.65;;
61085;SDS011;46967;48.876;2.136;2024-03-22T05:31:53;11.88;;;6.88;;
61085;SDS011;46967;48.876;2.136;2024-03-22T05:34:19;14.50;;;7.10;;
61085;SDS011;46967;48.876;2.136;2024-03-22T05:36:45;10.65;;;7.03;;
61085;SDS011;46967;48.876;2.136;2024-03-22T05:39:10;17.00;;;7.20;;
61085;SDS011;46967;48.876;2.136;2024-03-22T05:41:37;12.95;;;6.95;;
61085;SDS011;46967;48.876;2.136;2024-03-22T05:44:03;11.23;;;7.13;;
61085;SDS011;46967;48.876;2.136;2024-03-22T05:46:28;11.88;;;6.55;;
61085;SDS011;46967;48.876;2.136;2024-03-22T05:48:54;12.75;;;7.57;;
61085;SDS011;46967;48.876;2.136;2024-03-22T05:51:19;13.15;;;7.53;;
61085;SDS011;46967;48.876;2.136;2024-03-22T05:53:45;11.48;;;7.53;;
61085;SDS011;46967;48.876;2.136;2024-03-22T05:56:10;10.63;;;7.35;;
61085;SDS011;46967;48.876;2.136;2024-03-22T05:58:36;11.68;;;7.22;;
61085;SDS011;46967;48.876;2.136;2024-03-22T06:01:01;12.13;;;7.38;;
61085;SDS011;46967;48.876;2.136;2024-03-22T06:03:28;13.43;;;7.93;;
61085;SDS011;46967;48.876;2.136;2024-03-22T06:05:53;11.32;;;7.80;;
61085;SDS011;46967;48.876;2.136;2024-03-22T06:08:21;13.55;;;7.45;;
61085;SDS011;46967;48.876;2.136;2024-03-22T06:10:47;13.88;;;7.80;;
61085;SDS011;46967;48.876;2.136;2024-03-22T06:13:13;11.68;;;7.10;;
61085;SDS011;46967;48.876;2.136;2024-03-22T06:15:38;11.60;;;7.22;;
61085;SDS011;46967;48.876;2.136;2024-03-22T06:18:05;10.65;;;7.03;;
61085;SDS011;46967;48.876;2.136;2024-03-22T06:20:30;11.32;;;7.45;;
61085;SDS011;46967;48.876;2.136;2024-03-22T06:22:56;16.35;;;7.63;;
61085;SDS011;46967;48.876;2.136;2024-03-22T06:25:21;11.95;;;7.80;;
61085;SDS011;46967;48.876;2.136;2024-03-22T06:27:47;13.38;;;7.18;;
61085;SDS011;46967;48.876;2.136;2024-03-22T06:30:12;11.18;;;7.72;;
61085;SDS011;46967;48.876;2.136;2024-03-22T06:32:38;11.93;;;7.85;;
61085;SDS011;46967;48.876;2.136;2024-03-22T06:35:03;13.73;;;8.07;;
61085;SDS011;46967;48.876;2.136;2024-03-22T06:37:30;13.57;;;7.65;;
61085;SDS011;46967;48.876;2.136;2024-03-22T06:39:56;14.75;;;8.40;;
61085;SDS011;46967;48.876;2.136;2024-03-22T06:42:21;14.23;;;8.60;;
61085;SDS011;46967;48.876;2.136;2024-03-22T06:44:46;14.30;;;9.15;;
61085;SDS011;46967;48.876;2.136;2024-03-22T06:47:12;15.48;;;9.57;;
61085;SDS011;46967;48.876;2.136;2024-03-22T06:49:37;13.55;;;9.23;;
61085;SDS011;46967;48.876;2.136;2024-03-22T06:52:02;14.85;;;9.82;;
61085;SDS011;46967;48.876;2.136;2024-03-22T06:54:28;16.88;;;9.55;;
61085;SDS011;46967;48.876;2.136;2024-03-22T06:56:53;18.30;;;9.95;;
61085;SDS011;46967;48.876;2.136;2024-03-22T06:59:18;16.35;;;10.32;;
61085;SDS011;46967;48.876;2.136;2024-03-22T07:01:44;16.38;;;9.85;;
61085;SDS011;46967;48.876;2.136;2024-03-22T07:04:09;18.20;;;11.43;;
61085;SDS011;46967;48.876;2.136;2024-03-22T07:06:34;15.93;;;11.07;;
61085;SDS011;46967;48.876;2.136;2024-03-22T07:09:00;17.58;;;11.45;;
61085;SDS011;46967;48.876;2.136;2024-03-22T07:11:25;18.52;;;11.80;;
61085;SDS011;46967;48.876;2.136;2024-03-22T07:13:50;19.38;;;11.35;;
61085;SDS011;46967;48.876;2.136;2024-03-22T07:16:16;17.42;;;11.73;;
61085;SDS011;46967;48.876;2.136;2024-03-22T07:18:41;21.00;;;11.73;;
61085;SDS011;46967;48.876;2.136;2024-03-22T07:21:07;15.65;;;11.52;;
61085;SDS011;46967;48.876;2.136;2024-03-22T07:23:32;18.38;;;11.98;;
61085;SDS011;46967;48.876;2.136;2024-03-22T07:25:57;18.42;;;11.90;;
61085;SDS011;46967;48.876;2.136;2024-03-22T07:28:24;19.42;;;11.60;;
61085;SDS011;46967;48.876;2.136;2024-03-22T07:30:49;16.58;;;11.70;;
61085;SDS011;46967;48.876;2.136;2024-03-22T07:33:15;22.02;;;12.10;;
61085;SDS011;46967;48.876;2.136;2024-03-22T07:35:42;17.73;;;11.98;;
61085;SDS011;46967;48.876;2.136;2024-03-22T07:38:08;21.27;;;12.27;;
61085;SDS011;46967;48.876;2.136;2024-03-22T07:40:33;21.00;;;12.35;;
61085;SDS011;46967;48.876;2.136;2024-03-22T07:42:58;24.40;;;13.38;;
61085;SDS011;46967;48.876;2.136;2024-03-22T07:45:24;22.98;;;12.73;;
61085;SDS011;46967;48.876;2.136;2024-03-22T07:47:49;24.75;;;12.85;;
61085;SDS011;46967;48.876;2.136;2024-03-22T07:50:15;19.85;;;12.48;;
61085;SDS011;46967;48.876;2.136;2024-03-22T07:52:40;24.25;;;13.23;;
61085;SDS011;46967;48.876;2.136;2024-03-22T07:55:06;23.15;;;12.95;;
61085;SDS011;46967;48.876;2.136;2024-03-22T07:57:31;22.25;;;12.82;;
61085;SDS011;46967;48.876;2.136;2024-03-22T07:59:57;24.55;;;13.65;;
61085;SDS011;46967;48.876;2.136;2024-03-22T08:02:23;24.75;;;13.77;;
61085;SDS011;46967;48.876;2.136;2024-03-22T08:04:48;26.23;;;13.80;;
61085;SDS011;46967;48.876;2.136;2024-03-22T08:07:14;22.15;;;14.07;;
61085;SDS011;46967;48.876;2.136;2024-03-22T08:09:39;23.10;;;13.35;;
61085;SDS011;46967;48.876;2.136;2024-03-22T08:12:05;21.48;;;14.13;;
61085;SDS011;46967;48.876;2.136;2024-03-22T08:14:31;21.27;;;13.43;;
61085;SDS011;46967;48.876;2.136;2024-03-22T08:16:56;19.98;;;14.65;;
61085;SDS011;46967;48.876;2.136;2024-03-22T08:19:22;24.58;;;13.75;;
61085;SDS011;46967;48.876;2.136;2024-03-22T08:21:47;22.25;;;15.32;;
61085;SDS011;46967;48.876;2.136;2024-03-22T08:24:13;24.10;;;12.82;;
61085;SDS011;46967;48.876;2.136;2024-03-22T08:26:38;19.10;;;13.43;;
61085;SDS011;46967;48.876;2.136;2024-03-22T08:29:05;21.83;;;14.25;;
61085;SDS011;46967;48.876;2.136;2024-03-22T08:31:30;21.88;;;14.10;;
61085;SDS011;46967;48.876;2.136;2024-03-22T08:33:55;25.52;;;14.30;;
61085;SDS011;46967;48.876;2.136;2024-03-22T08:36:21;21.58;;;14.05;;
61085;SDS011;46967;48.876;2.136;2024-03-22T08:38:48;23.20;;;14.30;;
61085;SDS011;46967;48.876;2.136;2024-03-22T08:41:14;23.75;;;15.05;;
61085;SDS011;46967;48.876;2.136;2024-03-22T08:43:39;22.38;;;15.40;;
61085;SDS011;46967;48.876;2.136;2024-03-22T08:46:04;24.13;;;14.63;;
61085;SDS011;46967;48.876;2.136;2024-03-22T08:48:30;27.63;;;15.20;;
61085;SDS011;46967;48.876;2.136;2024-03-22T08:50:55;20.42;;;14.52;;
61085;SDS011;46967;48.876;2.136;2024-03-22T08:53:21;22.80;;;14.38;;
61085;SDS011;46967;48.876;2.136;2024-03-22T08:55:47;15.60;;;10.65;;
61085;SDS011;46967;48.876;2.136;2024-03-22T08:58:13;18.42;;;11.07;;
61085;SDS011;46967;48.876;2.136;2024-03-22T09:00:40;20.38;;;13.20;;
61085;SDS011;46967;48.876;2.136;2024-03-22T09:03:07;21.50;;;14.05;;
61085;SDS011;46967;48.876;2.136;2024-03-22T09:05:32;19.60;;;13.70;;
61085;SDS011;46967;48.876;2.136;2024-03-22T09:07:58;18.02;;;14.07;;
61085;SDS011;46967;48.876;2.136;2024-03-22T09:10:24;19.02;;;14.35;;
61085;SDS011;46967;48.876;2.136;2024-03-22T09:12:49;18.70;;;14.05;;
61085;SDS011;46967;48.876;2.136;2024-03-22T09:15:15;22.60;;;15.30;;
61085;SDS011;46967;48.876;2.136;2024-03-22T09:17:40;21.85;;;14.60;;
61085;SDS011;46967;48.876;2.136;2024-03-22T09:20:05;21.95;;;13.90;;
61085;SDS011;46967;48.876;2.136;2024-03-22T09:22:32;17.65;;;13.00;;
61085;SDS011;46967;48.876;2.136;2024-03-22T09:24:58;15.77;;;12.68;;
61085;SDS011;46967;48.876;2.136;2024-03-22T09:27:24;20.13;;;13.57;;
61085;SDS011;46967;48.876;2.136;2024-03-22T09:29:49;17.23;;;12.90;;
61085;SDS011;46967;48.876;2.136;2024-03-22T09:32:14;17.52;;;12.88;;
61085;SDS011;46967;48.876;2.136;2024-03-22T09:34:40;16.80;;;12.57;;
61085;SDS011;46967;48.876;2.136;2024-03-22T09:37:05;17.90;;;12.75;;
61085;SDS011;46967;48.876;2.136;2024-03-22T09:39:31;16.73;;;12.02;;
61085;SDS011;46967;48.876;2.136;2024-03-22T09:41:57;15.50;;;11.57;;
61085;SDS011;46967;48.876;2.136;2024-03-22T09:44:24;16.90;;;11.18;;
61085;SDS011;46967;48.876;2.136;2024-03-22T09:46:52;18.15;;;10.68;;
61085;SDS011;46967;48.876;2.136;2024-03-22T09:49:18;23.33;;;11.85;;
61085;SDS011;46967;48.876;2.136;2024-03-22T09:51:44;14.50;;;10.30;;
61085;SDS011;46967;48.876;2.136;2024-03-22T09:54:10;14.43;;;9.73;;
61085;SDS011;46967;48.876;2.136;2024-03-22T09:56:39;14.82;;;10.10;;
61085;SDS011;46967;48.876;2.136;2024-03-22T09:59:05;15.00;;;10.60;;
61085;SDS011;46967;48.876;2.136;2024-03-22T10:01:31;12.68;;;9.68;;
61085;SDS011;46967;48.876;2.136;2024-03-22T10:03:59;18.58;;;9.73;;
61085;SDS011;46967;48.876;2.136;2024-03-22T10:06:24;13.63;;;9.82;;
61085;SDS011;46967;48.876;2.136;2024-03-22T10:08:50;11.55;;;8.95;;
61085;SDS011;46967;48.876;2.136;2024-03-22T10:11:16;13.10;;;9.30;;
61085;SDS011;46967;48.876;2.136;2024-03-22T10:13:41;11.75;;;9.10;;
61085;SDS011;46967;48.876;2.136;2024-03-22T10:16:07;14.50;;;9.20;;
61085;SDS011;46967;48.876;2.136;2024-03-22T10:18:33;13.15;;;9.95;;
61085;SDS011;46967;48.876;2.136;2024-03-22T10:20:59;15.88;;;9.63;;
61085;SDS011;46967;48.876;2.136;2024-03-22T10:23:29;14.43;;;9.95;;
61085;SDS011;46967;48.876;2.136;2024-03-22T10:25:55;14.23;;;10.15;;
61085;SDS011;46967;48.876;2.136;2024-03-22T10:28:24;15.00;;;9.82;;
61085;SDS011;46967;48.876;2.136;2024-03-22T10:30:50;13.82;;;9.75;;
61085;SDS011;46967;48.876;2.136;2024-03-22T10:33:18;14.13;;;9.90;;
61085;SDS011;46967;48.876;2.136;2024-03-22T10:35:44;14.57;;;9.77;;
61085;SDS011;46967;48.876;2.136;2024-03-22T10:38:11;15.95;;;9.68;;
61085;SDS011;46967;48.876;2.136;2024-03-22T10:40:38;16.77;;;9.18;;
61085;SDS011;46967;48.876;2.136;2024-03-22T10:43:05;14.80;;;9.40;;
61085;SDS011;46967;48.876;2.136;2024-03-22T10:45:30;12.50;;;9.82;;
61085;SDS011;46967;48.876;2.136;2024-03-22T10:47:56;15.23;;;10.68;;
61085;SDS011;46967;48.876;2.136;2024-03-22T10:50:22;13.13;;;9.00;;
61085;SDS011;46967;48.876;2.136;2024-03-22T10:52:56;15.10;;;9.60;;
61085;SDS011;46967;48.876;2.136;2024-03-22T10:55:27;11.95;;;9.25;;
61085;SDS011;46967;48.876;2.136;2024-03-22T10:57:56;14.55;;;9.80;;
61085;SDS011;46967;48.876;2.136;2024-03-22T11:00:29;13.02;;;9.35;;
61085;SDS011;46967;48.876;2.136;2024-03-22T11:02:56;16.05;;;8.95;;
61085;SDS011;46967;48.876;2.136;2024-03-22T11:05:21;15.90;;;9.73;;
61085;SDS011;46967;48.876;2.136;2024-03-22T11:07:47;16.27;;;9.90;;
61085;SDS011;46967;48.876;2.136;2024-03-22T11:10:13;13.60;;;8.98;;
61085;SDS011;46967;48.876;2.136;2024-03-22T11:12:39;15.07;;;9.52;;
61085;SDS011;46967;48.876;2.136;2024-03-22T11:15:05;14.32;;;9.48;;
61085;SDS011;46967;48.876;2.136;2024-03-22T11:17:30;13.63;;;8.70;;
61085;SDS011;46967;48.876;2.136;2024-03-22T11:19:56;11.93;;;8.90;;
61085;SDS011;46967;48.876;2.136;2024-03-22T11:22:21;11.52;;;7.80;;
61085;SDS011;46967;48.876;2.136;2024-03-22T11:24:47;11.75;;;8.80;;
61085;SDS011;46967;48.876;2.136;2024-03-22T11:27:13;12.30;;;8.77;;
61085;SDS011;46967;48.876;2.136;2024-03-22T11:29:39;14.38;;;8.63;;
61085;SDS011;46967;48.876;2.136;2024-03-22T11:32:06;13.55;;;8.75;;
61085;SDS011;46967;48.876;2.136;2024-03-22T11:34:38;13.27;;;8.50;;
61085;SDS011;46967;48.876;2.136;2024-03-22T11:37:07;13.77;;;8.30;;
61085;SDS011;46967;48.876;2.136;2024-03-22T11:39:35;11.60;;;7.40;;
61085;SDS011;46967;48.876;2.136;2024-03-22T11:42:04;14.40;;;7.90;;
61085;SDS011;46967;48.876;2.136;2024-03-22T11:44:31;12.40;;;7.93;;
61085;SDS011;46967;48.876;2.136;2024-03-22T11:46:57;13.43;;;7.95;;
61085;SDS011;46967;48.876;2.136;2024-03-22T11:49:22;13.50;;;9.38;;
61085;SDS011;46967;48.876;2.136;2024-03-22T11:51:48;12.55;;;8.80;;
61085;SDS011;46967;48.876;2.136;2024-03-22T11:54:13;13.60;;;8.18;;
61085;SDS011;46967;48.876;2.136;2024-03-22T11:56:39;12.55;;;8.63;;
61085;SDS011;46967;48.876;2.136;2024-03-22T11:59:06;14.18;;;8.10;;
61085;SDS011;46967;48.876;2.136;2024-03-22T12:01:32;11.93;;;8.25;;
61085;SDS011;46967;48.876;2.136;2024-03-22T12:03:58;14.57;;;8.55;;
61085;SDS011;46967;48.876;2.136;2024-03-22T12:06:23;14.30;;;8.82;;
61085;SDS011;46967;48.876;2.136;2024-03-22T12:08:49;11.68;;;8.02;;
61085;SDS011;46967;48.876;2.136;2024-03-22T12:11:15;10.55;;;7.95;;
61085;SDS011;46967;48.876;2.136;2024-03-22T12:13:41;12.60;;;7.72;;
61085;SDS011;46967;48.876;2.136;2024-03-22T12:16:06;10.50;;;7.43;;
61085;SDS011;46967;48.876;2.136;2024-03-22T12:18:34;10.93;;;7.53;;
61085;SDS011;46967;48.876;2.136;2024-03-22T12:21:00;11.00;;;8.25;;
61085;SDS011;46967;48.876;2.136;2024-03-22T12:23:26;11.15;;;7.88;;
61085;SDS011;46967;48.876;2.136;2024-03-22T12:25:51;12.77;;;7.90;;
61085;SDS011;46967;48.876;2.136;2024-03-22T12:28:17;12.68;;;8.18;;
61085;SDS011;46967;48.876;2.136;2024-03-22T12:30:43;12.77;;;7.00;;
61085;SDS011;46967;48.876;2.136;2024-03-22T12:33:09;10.95;;;7.90;;
61085;SDS011;46967;48.876;2.136;2024-03-22T12:35:36;12.77;;;8.15;;
61085;SDS011;46967;48.876;2.136;2024-03-22T12:38:04;12.45;;;7.65;;
61085;SDS011;46967;48.876;2.136;2024-03-22T12:40:30;12.40;;;7.03;;
61085;SDS011;46967;48.876;2.136;2024-03-22T12:42:57;10.07;;;7.43;;
61085;SDS011;46967;48.876;2.136;2024-03-22T12:45:23;12.77;;;8.85;;
61085;SDS011;46967;48.876;2.136;2024-03-22T12:47:48;10.50;;;7.75;;
61085;SDS011;46967;48.876;2.136;2024-03-22T12:50:13;12.65;;;7.93;;
61085;SDS011;46967;48.876;2.136;2024-03-22T12:52:41;12.25;;;8.43;;
61085;SDS011;46967;48.876;2.136;2024-03-22T12:55:09;12.50;;;9.00;;
61085;SDS011;46967;48.876;2.136;2024-03-22T12:57:34;10.45;;;7.45;;
61085;SDS011;46967;48.876;2.136;2024-03-22T13:00:00;12.70;;;7.25;;
61085;SDS011;46967;48.876;2.136;2024-03-22T13:02:25;10.57;;;7.32;;
61085;SDS011;46967;48.876;2.136;2024-03-22T13:04:51;11.68;;;7.65;;
61085;SDS011;46967;48.876;2.136;2024-03-22T13:07:18;11.13;;;7.45;;
61085;SDS011;46967;48.876;2.136;2024-03-22T13:09:44;8.63;;;5.68;;
61085;SDS011;46967;48.876;2.136;2024-03-22T13:12:10;7.93;;;5.75;;
61085;SDS011;46967;48.876;2.136;2024-03-22T13:14:35;8.82;;;6.28;;
61085;SDS011;46967;48.876;2.136;2024-03-22T13:17:00;10.68;;;6.63;;
61085;SDS011;46967;48.876;2.136;2024-03-22T13:19:26;11.10;;;6.13;;
61085;SDS011;46967;48.876;2.136;2024-03-22T13:21:51;9.95;;;6.38;;
61085;SDS011;46967;48.876;2.136;2024-03-22T13:24:16;8.98;;;5.95;;
61085;SDS011;46967;48.876;2.136;2024-03-22T13:26:42;8.77;;;6.35;;
61085;SDS011;46967;48.876;2.136;2024-03-22T13:29:07;7.55;;;5.85;;
61085;SDS011;46967;48.876;2.136;2024-03-22T13:31:32;9.27;;;6.40;;
61085;SDS011;46967;48.876;2.136;2024-03-22T13:33:58;8.10;;;5.30;;
61085;SDS011;46967;48.876;2.136;2024-03-22T13:36:23;7.53;;;5.43;;
61085;SDS011;46967;48.876;2.136;2024-03-22T13:38:50;13.48;;;5.20;;
61085;SDS011;46967;48.876;2.136;2024-03-22T13:41:16;7.57;;;5.50;;
61085;SDS011;46967;48.876;2.136;2024-03-22T13:43:41;9.05;;;5.75;;
61085;SDS011;46967;48.876;2.136;2024-03-22T13:46:09;11.27;;;5.82;;
61085;SDS011;46967;48.876;2.136;2024-03-22T13:48:39;8.60;;;5.75;;
61085;SDS011;46967;48.876;2.136;2024-03-22T13:51:04;7.95;;;6.00;;
61085;SDS011;46967;48.876;2.136;2024-03-22T13:53:30;9.27;;;6.10;;
61085;SDS011;46967;48.876;2.136;2024-03-22T13:55:55;10.80;;;5.93;;
61085;SDS011;46967;48.876;2.136;2024-03-22T13:58:21;8.20;;;6.15;;
61085;SDS011;46967;48.876;2.136;2024-03-22T14:00:47;9.10;;;6.35;;
61085;SDS011;46967;48.876;2.136;2024-03-22T14:03:12;10.63;;;6.40;;
61085;SDS011;46967;48.876;2.136;2024-03-22T14:05:37;11.32;;;5.47;;
61085;SDS011;46967;48.876;2.136;2024-03-22T14:08:03;7.35;;;5.30;;
61085;SDS011;46967;48.876;2.136;2024-03-22T14:10:29;7.70;;;5.20;;
61085;SDS011;46967;48.876;2.136;2024-03-22T14:12:57;8.57;;;5.30;;
61085;SDS011;46967;48.876;2.136;2024-03-22T14:15:23;7.95;;;4.85;;
61085;SDS011;46967;48.876;2.136;2024-03-22T14:17:56;9.05;;;5.35;;
61085;SDS011;46967;48.876;2.136;2024-03-22T14:20:21;6.95;;;4.82;;
61085;SDS011;46967;48.876;2.136;2024-03-22T14:22:47;7.35;;;4.63;;
61085;SDS011;46967;48.876;2.136;2024-03-22T14:25:13;6.97;;;5.10;;
61085;SDS011;46967;48.876;2.136;2024-03-22T14:27:38;6.35;;;4.45;;
61085;SDS011;46967;48.876;2.136;2024-03-22T14:30:04;7.80;;;3.97;;